East TN State Univ, Tennessee
Current Conditions -  °F | °C
As of 4:53 PM on Monday 20 Oct 2014 (Local Time) from KTRI Reporting Station
Overcast Overcast  
Wind Chill: 63°   Ceiling: 11000
Heat Index: 63°   Visibility: 10mi
Dew Point: 48°   Wind: 9mph
Humidity: 58%   Direction: 210°SSW
Pressure: 29.99"   Gusts: NA
Location:  36.3658°N, 82.4151°W
Report Text: KTRI 202053Z 21008KT 10SM FEW039 BKN110 OVC180 17/09 A2999 RMK AO2 SLP145 T01720089 56013
Loading
Personal Weather Stations






























Interactive Weather Map
Tropical Storm Tracking
New forecast layout! Learn more

10-Day Weather Forecast

Advertisements
Track Severe Weather on mobile